Terminal Aerodrome Forecast
Issued by NWS

Home | Current Version | Previous Version | Text Only | Print | Product List | Glossary On
Versions: 1 2 3 4 5 6 7 8 9 10 11 12 13 14 15 16
799
FTUS44 KBMX 300520
TAFMGM
TAF
KMGM 300520Z 3006/0106 15005KT P6SM SCT040 SCT250 WS018/17042KT
     FM300900 11006KT P6SM BKN025 WS018/17042KT
     FM301200 12011G17KT P6SM OVC015
     FM301500 15012G23KT P6SM BKN025
     FM301800 18018G28KT P6SM BKN035 PROB30 3019/3024 4SM -TSRA
      BKN035CB=

USA.gov is the U.S. government's official web portal to all federal, state and local government web resources and services.